ETNLEDNY

Guest
Details From ETNL - Laage
To EDNY - Friedrichshafen
Flight Number -
Tags Generated
Created
Modified
Stats Distance 390 nm / 722 km
Max Altitude 0 ft / 0 m
Waypoints 3
Social Downloads 1
Likes 0
Share VATSIM

Download

Looking for another format? Having issues loading an existing format? Contact us
Advertisement - Login to hide

Notes

Generated

Route

ETNL R1816 EDNY

ID Type Via Altitude Latitude Longitude Leg Dist Tot Dist Heading (true) Name
O ETNL APT - 0 ft / 0 m 53.91967˚ 12.26033˚ - 0 nm - -
R1816 FIX - 0 ft / 0 m 47.66725˚ 9.50100˚ 389 nm 389 nm 197° / 195° -
O EDNY APT - 0 ft / 0 m 47.66604˚ 9.49789˚ 0 nm 389 nm 240° / 240° -

Altitude Profile

Advertisement - Login to hide

Weather


0- 5 10 15 20 25 30 35+ Temperature / ° C

Clouds and Precipitation
Forecast for 2017-12-18 12:00 UTC. Updated 2 hours ago

Ground ~20,000 ft ~40,000 ft Winds

ETNL

Details ICAO ETNL (RLG)
Name Laage
Region Germany - Military
Timezone Europe/Berlin (UTC+1.0)
Stats Elevation 138 ft / 42 m (AMSL)
Location 53.918084° 12.279250°
Runways 1
Magnetic Variation 3.520° E

METAR

ETNL 181220Z 20003KT 9999 FEW300 02/M01 Q1024 BLU+BLU+

Decode

TAF

Not found

Departure Runways

ID Width Length Bearing (true) Bearing (mag) Surface Threshold Offset Overrun Length
10 148 ft / 45 m 8,213 ft / 2,503 m 98.07° 94.55° Concrete 0 ft / 0 m 1,001 ft / 305 m
28 148 ft / 45 m 8,213 ft / 2,503 m 278.10° 274.58° Concrete 0 ft / 0 m 1,001 ft / 305 m

EDNY

Details ICAO EDNY (FDH)
Name Friedrichshafen
Region Germany - Civil
Timezone Europe/Berlin (UTC+1.0)
Stats Elevation 1,367 ft / 417 m (AMSL)
Location 47.670891° 9.508175°
Runways 2
Magnetic Variation 2.587° E

METAR

EDNY 181250Z 15004KT 110V170 9999 SCT004 BKN010 OVC014 00/M01 Q1022

Decode

TAF

TAF EDNY 181100Z 1812/1912 VRB03KT 9999 BKN015 TEMPO 1812/1814 1200 -SN BKN006 TEMPO 1821/1908 4000 BR BKN008

Decode

Destination Runways

ID Width Length Bearing (true) Bearing (mag) Surface Threshold Offset Overrun Length
06 148 ft / 45 m 7,738 ft / 2,359 m 60.02° 57.43° Asphalt 869 ft / 265 m 0 ft / 0 m
06L 92 ft / 28 m 3,167 ft / 965 m 60.04° 57.45° Grass 0 ft / 0 m 0 ft / 0 m
24 148 ft / 45 m 7,738 ft / 2,359 m 240.04° 237.45° Asphalt 676 ft / 206 m 89 ft / 27 m
24R 92 ft / 28 m 3,167 ft / 965 m 240.04° 237.45° Grass 0 ft / 0 m 0 ft / 0 m

Approach Navaids

Runway Type Ident Frequency Range Bearing (true) Bearing (mag) Slope Elevation
06 Localiser IFHE 111.90 MHz 18 nm / 33 km 60.06° 57.47° - 1,366 ft / 416 m (AMSL)
06 Glidescope IFHE 111.90 MHz 10 nm / 19 km 60.03° 57.44° 3.10° 1,367 ft / 417 m (AMSL)
24 Localiser IFHW 111.90 MHz 18 nm / 33 km 240.03° 237.45° - 1,333 ft / 406 m (AMSL)
24 Glidescope IFHW 111.90 MHz 10 nm / 19 km 240.03° 237.44° 3.00° 1,367 ft / 417 m (AMSL)

Popular Alternatives